Time;durP1;ratioP1;P1;durP2;ratioP2;P2;SDS_P1;SDS_P2;PMS_P1;PMS_P2;Temp;Humidity;BMP_temperature;BMP_pressure;BME280_temperature;BME280_humidity;BME280_pressure;Samples;Min_cycle;Max_cycle;Signal;HPM_P1;HPM_P2
2023/03/03 00:00:22;;;;;;;;;;;;;;;3.53;100.00;102442.19;5033079;28;19928;-67
2023/03/03 00:02:49;;;;;;;;;;;;;;;3.43;100.00;102446.03;5040107;28;20305;-67
2023/03/03 00:05:17;;;;;;;;;;;;;;;3.43;100.00;102441.72;5034521;28;19960;-66
2023/03/03 00:07:44;;;;;;;;;;;;;;;3.43;100.00;102441.72;5032819;28;19982;-67
2023/03/03 00:10:11;;;;;;;;;;;;;;;3.43;100.00;102443.44;5034538;28;19928;-66
2023/03/03 00:12:45;;;;;;;;;;;;;;;3.35;100.00;102447.19;5039934;28;19928;-66
2023/03/03 00:15:13;;;;;;;;;;;;;;;3.34;100.00;102447.25;5040804;28;20036;-67
2023/03/03 00:17:39;;;;;;;;;;;;;;;3.34;100.00;102449.84;5027662;28;19925;-66
2023/03/03 00:20:24;;;;;;;;;;;;;;;3.33;100.00;102442.94;5033586;28;19929;-67
2023/03/03 00:22:50;;;;;;;;;;;;;;;3.25;100.00;102447.59;5034001;28;19921;-66
2023/03/03 00:25:30;;;;;;;;;;;;;;;3.22;100.00;102445.97;5042091;28;19920;-66
2023/03/03 00:28:20;;;;;;;;;;;;;;;3.19;100.00;102451.25;5029641;28;19940;-67
2023/03/03 00:30:46;;;;;;;;;;;;;;;3.20;100.00;102457.31;5029839;28;19928;-67
2023/03/03 00:33:20;;;;;;;;;;;;;;;3.22;100.00;102451.16;5039270;28;19951;-66
2023/03/03 00:35:46;;;;;;;;;;;;;;;3.24;100.00;102453.69;5035118;28;19970;-67
2023/03/03 00:38:15;;;;;;;;;;;;;;;3.25;100.00;102457.97;5039716;28;19948;-66
2023/03/03 00:40:42;;;;;;;;;;;;;;;3.28;100.00;102457.88;5027700;28;19925;-66
2023/03/03 00:43:16;;;;;;;;;;;;;;;3.25;100.00;102456.22;5042029;28;19932;-66
2023/03/03 00:45:45;;;;;;;;;;;;;;;3.27;100.00;102457.00;5038938;28;19979;-66
2023/03/03 00:48:40;;;;;;;;;;;;;;;3.29;100.00;102463.00;5039730;28;19924;-67
2023/03/03 00:51:21;;;;;;;;;;;;;;;3.30;100.00;102456.91;5023977;28;19928;-66
2023/03/03 00:53:48;;;;;;;;;;;;;;;3.26;100.00;102460.50;5034426;28;19927;-66
2023/03/03 00:56:14;;;;;;;;;;;;;;;3.25;100.00;102453.63;5039296;28;19921;-67
2023/03/03 00:58:43;;;;;;;;;;;;;;;3.24;100.00;102453.69;5047811;28;19925;-66
2023/03/03 01:01:09;;;;;;;;;;;;;;;3.23;100.00;102457.19;5035826;28;19929;-66
2023/03/03 01:03:35;;;;;;;;;;;;;;;3.24;100.00;102449.34;5020610;28;20309;-67
2023/03/03 01:06:02;;;;;;;;;;;;;;;3.26;100.00;102451.91;5015560;28;20359;-66
2023/03/03 01:08:28;;;;;;;;;;;;;;;3.20;100.00;102452.97;5039863;28;19955;-66
2023/03/03 01:10:55;;;;;;;;;;;;;;;3.18;100.00;102454.78;5037325;28;19925;-67
2023/03/03 01:13:27;;;;;;;;;;;;;;;3.07;100.00;102456.94;5030161;28;20725;-66
2023/03/03 01:15:53;;;;;;;;;;;;;;;3.10;100.00;102455.06;5035241;28;19974;-67
2023/03/03 01:18:19;;;;;;;;;;;;;;;3.07;100.00;102459.50;5039756;28;19928;-66
2023/03/03 01:20:46;;;;;;;;;;;;;;;3.01;100.00;102455.41;5027566;28;20290;-66
2023/03/03 01:23:12;;;;;;;;;;;;;;;2.97;100.00;102453.81;5038523;28;19952;-66
2023/03/03 01:25:38;;;;;;;;;;;;;;;3.01;100.00;102447.63;5032979;28;19937;-66
2023/03/03 01:28:05;;;;;;;;;;;;;;;3.01;100.00;102445.03;5037491;28;19947;-67
2023/03/03 01:30:31;;;;;;;;;;;;;;;3.04;100.00;102446.66;5025073;28;19927;-66
2023/03/03 01:32:57;;;;;;;;;;;;;;;3.06;100.00;102450.03;5032745;28;20420;-66
2023/03/03 01:35:24;;;;;;;;;;;;;;;3.07;100.00;102451.75;5027182;28;19931;-67
2023/03/03 01:37:50;;;;;;;;;;;;;;;3.05;100.00;102451.78;5028519;28;19921;-66
2023/03/03 01:40:18;;;;;;;;;;;;;;;3.05;100.00;102453.53;5034257;28;19921;-66
2023/03/03 01:42:45;;;;;;;;;;;;;;;3.03;100.00;102458.78;5032229;28;19921;-66
2023/03/03 01:45:22;;;;;;;;;;;;;;;3.01;100.00;102454.56;5026934;28;20098;-66
2023/03/03 01:47:48;;;;;;;;;;;;;;;2.98;100.00;102452.94;5030871;28;19947;-66
2023/03/03 01:50:19;;;;;;;;;;;;;;;3.03;100.00;102455.34;5031644;28;19925;-67
2023/03/03 01:52:46;;;;;;;;;;;;;;;3.02;100.00;102459.69;5046566;28;20278;-66
2023/03/03 01:55:21;;;;;;;;;;;;;;;3.03;100.00;102460.53;5035570;28;20011;-66
2023/03/03 01:57:55;;;;;;;;;;;;;;;3.04;100.00;102463.09;5023982;28;19928;-66
2023/03/03 02:00:21;;;;;;;;;;;;;;;3.07;100.00;102470.72;5024459;28;19921;-67
2023/03/03 02:02:47;;;;;;;;;;;;;;;3.08;100.00;102466.41;5037442;28;19929;-66
2023/03/03 02:05:15;;;;;;;;;;;;;;;3.08;100.00;102467.25;5022671;28;19925;-66
2023/03/03 02:07:41;;;;;;;;;;;;;;;3.06;100.00;102470.78;5030027;28;19929;-66
2023/03/03 02:10:15;;;;;;;;;;;;;;;3.10;100.00;102467.19;5014435;28;19928;-67
2023/03/03 02:12:44;;;;;;;;;;;;;;;3.05;100.00;102469.94;5048860;28;20438;-66
2023/03/03 02:15:14;;;;;;;;;;;;;;;3.11;100.00;102472.28;5030443;28;19921;-66
2023/03/03 02:17:40;;;;;;;;;;;;;;;3.13;100.00;102475.69;5027564;28;19925;-66
2023/03/03 02:20:19;;;;;;;;;;;;;;;3.10;100.00;102473.22;5029021;28;20292;-66
2023/03/03 02:23:05;;;;;;;;;;;;;;;3.10;100.00;102465.44;5022841;28;19936;-66
2023/03/03 02:25:44;;;;;;;;;;;;;;;3.08;100.00;102458.63;5034911;28;19979;-66
2023/03/03 02:28:11;;;;;;;;;;;;;;;3.11;100.00;102474.06;5045901;28;20502;-66
2023/03/03 02:30:38;;;;;;;;;;;;;;;3.09;100.00;102465.50;5037993;28;20277;-66
2023/03/03 02:33:05;;;;;;;;;;;;;;;3.09;100.00;102466.31;5037866;28;19928;-66
2023/03/03 02:35:33;;;;;;;;;;;;;;;3.10;100.00;102470.63;5035214;28;20455;-67
2023/03/03 02:38:11;;;;;;;;;;;;;;;3.08;100.00;102469.84;5037911;28;19991;-67
2023/03/03 02:40:41;;;;;;;;;;;;;;;3.05;100.00;102463.91;5035703;28;19924;-66
2023/03/03 02:43:09;;;;;;;;;;;;;;;3.08;100.00;102467.25;5040111;28;19928;-67
2023/03/03 02:45:40;;;;;;;;;;;;;;;3.14;100.00;102476.53;5030837;28;19925;-67
2023/03/03 02:48:07;;;;;;;;;;;;;;;3.11;100.00;102464.53;5039618;28;19922;-67
2023/03/03 02:50:33;;;;;;;;;;;;;;;3.16;100.00;102459.19;5039263;28;20512;-67
2023/03/03 02:52:59;;;;;;;;;;;;;;;3.14;100.00;102463.59;5039970;28;20016;-66
2023/03/03 02:55:25;;;;;;;;;;;;;;;3.10;100.00;102456.81;5045156;28;19974;-67
2023/03/03 02:57:52;;;;;;;;;;;;;;;3.14;100.00;102451.44;5028063;28;19999;-66
2023/03/03 03:00:20;;;;;;;;;;;;;;;3.09;100.00;102455.13;5037825;28;19920;-66
2023/03/03 03:02:46;;;;;;;;;;;;;;;3.12;100.00;102461.03;5030748;28;19920;-67
2023/03/03 03:05:12;;;;;;;;;;;;;;;3.16;100.00;102454.81;5039793;28;19924;-67
2023/03/03 03:07:39;;;;;;;;;;;;;;;3.19;100.00;102463.41;5041390;28;20640;-67
2023/03/03 03:10:05;;;;;;;;;;;;;;;3.16;100.00;102464.38;5050223;28;20457;-66
2023/03/03 03:12:31;;;;;;;;;;;;;;;3.16;100.00;102462.59;5025181;28;19920;-66
2023/03/03 03:14:58;;;;;;;;;;;;;;;3.12;100.00;102455.84;5042300;28;20399;-67
2023/03/03 03:17:25;;;;;;;;;;;;;;;3.17;100.00;102458.25;5041598;28;19925;-68
2023/03/03 03:19:51;;;;;;;;;;;;;;;3.13;100.00;102460.13;5042376;28;19966;-68
2023/03/03 03:22:18;;;;;;;;;;;;;;;3.17;100.00;102463.44;5047870;28;19932;-68
2023/03/03 03:24:44;;;;;;;;;;;;;;;3.20;100.00;102465.09;5041280;28;19921;-68
2023/03/03 03:27:11;;;;;;;;;;;;;;;3.12;100.00;102467.97;5053836;28;20533;-67
2023/03/03 03:29:37;;;;;;;;;;;;;;;3.13;100.00;102473.09;5039493;28;19921;-68
2023/03/03 03:32:03;;;;;;;;;;;;;;;3.12;100.00;102470.56;5028124;28;19924;-68
2023/03/03 03:34:30;;;;;;;;;;;;;;;3.12;100.00;102474.00;5033313;28;19925;-67
2023/03/03 03:36:56;;;;;;;;;;;;;;;3.10;100.00;102468.03;5036319;28;20333;-68
2023/03/03 03:39:22;;;;;;;;;;;;;;;3.09;100.00;102471.50;5044414;28;20365;-68
2023/03/03 03:41:49;;;;;;;;;;;;;;;3.13;100.00;102467.91;5030110;28;19932;-68
2023/03/03 03:44:15;;;;;;;;;;;;;;;3.13;100.00;102472.25;5037452;28;20396;-68
2023/03/03 03:46:41;;;;;;;;;;;;;;;3.10;100.00;102462.84;5034344;28;20377;-67
2023/03/03 03:49:08;;;;;;;;;;;;;;;3.06;100.00;102468.19;5035873;28;19971;-68
2023/03/03 03:51:37;;;;;;;;;;;;;;;3.08;100.00;102471.59;5043280;28;19924;-67
2023/03/03 03:54:03;;;;;;;;;;;;;;;3.13;100.00;102478.28;5042474;28;20463;-68
2023/03/03 03:56:29;;;;;;;;;;;;;;;3.17;100.00;102481.59;5046901;28;19925;-68
2023/03/03 03:58:56;;;;;;;;;;;;;;;3.20;100.00;102475.47;5036297;28;19924;-67
2023/03/03 04:01:22;;;;;;;;;;;;;;;3.20;100.00;102471.13;5049345;28;19924;-68
2023/03/03 04:03:48;;;;;;;;;;;;;;;3.19;100.00;102469.41;5042132;28;19967;-68
2023/03/03 04:06:14;;;;;;;;;;;;;;;3.20;100.00;102471.13;5030866;28;19928;-67
2023/03/03 04:08:41;;;;;;;;;;;;;;;3.14;100.00;102473.94;5044830;28;19924;-67
2023/03/03 04:11:07;;;;;;;;;;;;;;;3.10;100.00;102473.22;5019573;28;20369;-68
2023/03/03 04:13:34;;;;;;;;;;;;;;;3.17;100.00;102468.63;5047323;28;20359;-68
2023/03/03 04:16:01;;;;;;;;;;;;;;;3.22;100.00;102469.31;5046703;28;19924;-68
2023/03/03 04:18:27;;;;;;;;;;;;;;;3.24;100.00;102467.50;5028403;28;19952;-67
2023/03/03 04:20:54;;;;;;;;;;;;;;;3.25;100.00;102465.75;5037724;28;19928;-68
2023/03/03 04:23:20;;;;;;;;;;;;;;;3.31;100.00;102466.38;5041326;28;20530;-68
2023/03/03 04:25:47;;;;;;;;;;;;;;;3.36;100.00;102473.97;5037888;28;19921;-67
2023/03/03 04:28:14;;;;;;;;;;;;;;;3.32;100.00;102469.81;5039620;28;19921;-68
2023/03/03 04:30:40;;;;;;;;;;;;;;;3.29;100.00;102467.31;5046959;28;19925;-67
2023/03/03 04:33:06;;;;;;;;;;;;;;;3.29;100.00;102468.19;5040562;28;19921;-68
2023/03/03 04:35:33;;;;;;;;;;;;;;;3.29;100.00;102470.78;5014669;28;19927;-68
2023/03/03 04:37:59;;;;;;;;;;;;;;;3.28;100.00;102474.25;5031142;28;19928;-68
2023/03/03 04:40:25;;;;;;;;;;;;;;;3.28;100.00;102476.84;5041269;28;19924;-67
2023/03/03 04:42:52;;;;;;;;;;;;;;;3.28;100.00;102473.44;5046019;28;19929;-68
2023/03/03 04:45:18;;;;;;;;;;;;;;;3.26;100.00;102470.88;5032533;28;19925;-68
2023/03/03 04:47:44;;;;;;;;;;;;;;;3.23;100.00;102471.00;5014805;28;20370;-68
2023/03/03 04:50:11;;;;;;;;;;;;;;;3.21;100.00;102467.59;5033154;28;20439;-68
2023/03/03 04:52:37;;;;;;;;;;;;;;;3.26;100.00;102470.88;5034753;28;20396;-67
2023/03/03 04:55:04;;;;;;;;;;;;;;;3.27;100.00;102474.31;5041320;28;19924;-68
2023/03/03 04:57:30;;;;;;;;;;;;;;;3.31;100.00;102471.56;5028728;28;20286;-68
2023/03/03 04:59:57;;;;;;;;;;;;;;;3.28;100.00;102474.25;5048361;28;19921;-67
2023/03/03 05:02:23;;;;;;;;;;;;;;;3.29;100.00;102482.88;5039719;28;19979;-67
2023/03/03 05:04:49;;;;;;;;;;;;;;;3.27;100.00;102482.09;5038296;28;20284;-68
2023/03/03 05:07:18;;;;;;;;;;;;;;;3.23;100.00;102481.38;5040688;28;19936;-68
2023/03/03 05:09:44;;;;;;;;;;;;;;;3.26;100.00;102486.44;5023645;28;19925;-68
2023/03/03 05:12:10;;;;;;;;;;;;;;;3.26;100.00;102485.59;5055574;28;19928;-68
2023/03/03 05:14:36;;;;;;;;;;;;;;;3.28;100.00;102484.63;5040615;28;19935;-68
2023/03/03 05:17:04;;;;;;;;;;;;;;;3.33;100.00;102487.91;5045184;28;19924;-68
2023/03/03 05:19:31;;;;;;;;;;;;;;;3.29;100.00;102496.72;5028914;28;20401;-68
2023/03/03 05:21:57;;;;;;;;;;;;;;;3.27;100.00;102488.13;5037243;28;19995;-68
2023/03/03 05:24:24;;;;;;;;;;;;;;;3.31;100.00;102484.53;5043392;28;19931;-68
2023/03/03 05:26:50;;;;;;;;;;;;;;;3.30;100.00;102490.63;5035330;28;20545;-68
2023/03/03 05:29:16;;;;;;;;;;;;;;;3.28;100.00;102494.19;5044538;28;19925;-67
2023/03/03 05:31:43;;;;;;;;;;;;;;;3.26;100.00;102493.38;5019677;28;19921;-68
2023/03/03 05:34:11;;;;;;;;;;;;;;;3.23;100.00;102493.50;5034578;28;19921;-68
2023/03/03 05:36:37;;;;;;;;;;;;;;;3.25;100.00;102489.94;5022389;28;19921;-67
2023/03/03 05:39:03;;;;;;;;;;;;;;;3.32;100.00;102486.22;5040747;28;20424;-68
2023/03/03 05:41:30;;;;;;;;;;;;;;;3.40;100.00;102488.50;5043350;28;20380;-68
2023/03/03 05:43:56;;;;;;;;;;;;;;;3.39;100.00;102494.59;5040145;28;20686;-68
2023/03/03 05:46:22;;;;;;;;;;;;;;;3.39;100.00;102488.56;5039035;28;19920;-68
2023/03/03 05:48:50;;;;;;;;;;;;;;;3.40;100.00;102493.69;5030620;28;19955;-68
2023/03/03 05:51:16;;;;;;;;;;;;;;;3.41;100.00;102504.91;5035731;28;19924;-68
2023/03/03 05:53:43;;;;;;;;;;;;;;;3.39;100.00;102499.78;5031556;28;19960;-68
2023/03/03 05:56:09;;;;;;;;;;;;;;;3.40;100.00;102498.88;5043361;28;19928;-68
2023/03/03 05:58:35;;;;;;;;;;;;;;;3.33;100.00;102493.09;5036931;28;19932;-68
2023/03/03 06:01:02;;;;;;;;;;;;;;;3.32;100.00;102498.34;5027942;28;19928;-68
2023/03/03 06:03:28;;;;;;;;;;;;;;;3.27;100.00;102495.06;5038271;28;19925;-67
2023/03/03 06:05:55;;;;;;;;;;;;;;;3.22;100.00;102502.19;5034267;28;19931;-67
2023/03/03 06:08:21;;;;;;;;;;;;;;;3.22;100.00;102507.38;5037138;28;19935;-67
2023/03/03 06:10:47;;;;;;;;;;;;;;;3.22;100.00;102509.97;5037486;28;19921;-67
2023/03/03 06:13:14;;;;;;;;;;;;;;;3.22;100.00;102509.97;5045126;28;19925;-67
2023/03/03 06:15:40;;;;;;;;;;;;;;;3.22;100.00;102515.16;5032675;28;19925;-67
2023/03/03 06:18:07;;;;;;;;;;;;;;;3.25;100.00;102509.84;5036404;28;19925;-67
2023/03/03 06:20:34;;;;;;;;;;;;;;;3.25;100.00;102515.88;5045884;28;19924;-67
2023/03/03 06:23:01;;;;;;;;;;;;;;;3.25;100.00;102520.22;5034650;28;20377;-67
2023/03/03 06:25:27;;;;;;;;;;;;;;;3.25;100.00;102521.06;5040575;28;19925;-67
2023/03/03 06:27:53;;;;;;;;;;;;;;;3.21;100.00;102527.25;5018419;28;19925;-68
2023/03/03 06:30:20;;;;;;;;;;;;;;;3.23;100.00;102522.03;5041613;28;20016;-67
2023/03/03 06:32:46;;;;;;;;;;;;;;;3.26;100.00;102532.28;5028316;28;20378;-67
2023/03/03 06:35:13;;;;;;;;;;;;;;;3.29;100.00;102521.78;5035891;28;20023;-68
2023/03/03 06:37:39;;;;;;;;;;;;;;;3.22;100.00;102528.97;5034954;28;20011;-67
2023/03/03 06:40:06;;;;;;;;;;;;;;;3.23;100.00;102530.63;5040604;28;19925;-67
2023/03/03 06:42:32;;;;;;;;;;;;;;;3.23;100.00;102527.22;5025891;28;19932;-67
2023/03/03 06:44:59;;;;;;;;;;;;;;;3.29;100.00;102526.97;5010485;28;20778;-67
2023/03/03 06:47:25;;;;;;;;;;;;;;;3.31;100.00;102533.81;5030370;28;19924;-67
2023/03/03 06:49:51;;;;;;;;;;;;;;;3.26;100.00;102534.88;5028217;28;20267;-67
2023/03/03 06:52:20;;;;;;;;;;;;;;;3.29;100.00;102534.75;5023630;28;20454;-67
2023/03/03 06:54:47;;;;;;;;;;;;;;;3.30;100.00;102546.84;5029439;28;19960;-67
2023/03/03 06:57:22;;;;;;;;;;;;;;;3.29;100.00;102539.94;5015305;28;19971;-68
2023/03/03 06:59:50;;;;;;;;;;;;;;;3.29;100.00;102551.19;5031369;28;19925;-68
2023/03/03 07:02:18;;;;;;;;;;;;;;;3.31;100.00;102541.59;5022784;28;19928;-68
2023/03/03 07:04:45;;;;;;;;;;;;;;;3.33;100.00;102544.97;5046632;28;20630;-69
2023/03/03 07:07:16;;;;;;;;;;;;;;;3.30;100.00;102550.28;5044204;28;19921;-68
2023/03/03 07:09:47;;;;;;;;;;;;;;;3.34;100.00;102546.66;5029754;28;19947;-69
2023/03/03 07:12:18;;;;;;;;;;;;;;;3.34;100.00;102544.06;5010172;28;19924;-68
2023/03/03 07:14:46;;;;;;;;;;;;;;;3.38;100.00;102559.53;5033162;28;19951;-68
2023/03/03 07:17:15;;;;;;;;;;;;;;;3.41;100.00;102556.78;5036388;28;19925;-68
2023/03/03 07:19:45;;;;;;;;;;;;;;;3.43;100.00;102550.66;5032915;28;19998;-69
2023/03/03 07:22:11;;;;;;;;;;;;;;;3.43;100.00;102558.44;5031401;28;19976;-68
2023/03/03 07:24:40;;;;;;;;;;;;;;;3.44;100.00;102560.13;5035839;28;19925;-69
2023/03/03 07:27:27;;;;;;;;;;;;;;;3.45;100.00;102569.63;5035230;28;19925;-69
2023/03/03 07:30:00;;;;;;;;;;;;;;;3.51;100.00;102571.13;5044138;28;19925;-66
2023/03/03 07:32:33;;;;;;;;;;;;;;;3.46;100.00;102573.88;5034094;28;19932;-69
2023/03/03 07:34:59;;;;;;;;;;;;;;;3.50;100.00;102572.03;5038950;28;19928;-67
2023/03/03 07:37:33;;;;;;;;;;;;;;;3.52;100.00;102581.44;5034922;28;19990;-66
2023/03/03 07:40:00;;;;;;;;;;;;;;;3.54;100.00;102577.03;5024609;28;20023;-69
2023/03/03 07:42:33;;;;;;;;;;;;;;;3.50;100.00;102578.06;5033300;28;19928;-68
2023/03/03 07:45:00;;;;;;;;;;;;;;;3.55;100.00;102581.34;5031616;28;19932;-68
2023/03/03 07:47:29;;;;;;;;;;;;;;;3.57;100.00;102581.28;5038349;28;20002;-69
2023/03/03 07:49:58;;;;;;;;;;;;;;;3.59;100.00;102584.66;5044984;28;20424;-69
2023/03/03 07:52:41;;;;;;;;;;;;;;;3.61;100.00;102594.97;5029494;28;20031;-69
2023/03/03 07:55:37;;;;;;;;;;;;;;;3.61;100.00;102584.59;5036653;28;19932;-69
2023/03/03 07:58:09;;;;;;;;;;;;;;;3.65;100.00;102596.56;5020314;28;20659;-69
2023/03/03 08:00:39;;;;;;;;;;;;;;;3.67;100.00;102600.78;5040866;28;20444;-69
2023/03/03 08:03:11;;;;;;;;;;;;;;;3.71;100.00;102602.34;5033186;28;19932;-69
2023/03/03 08:05:39;;;;;;;;;;;;;;;3.79;100.00;102601.22;5042291;28;19924;-69
2023/03/03 08:08:08;;;;;;;;;;;;;;;3.74;100.00;102604.84;5030779;28;20400;-69
2023/03/03 08:10:47;;;;;;;;;;;;;;;3.82;100.00;102606.28;5037733;28;19960;-69
2023/03/03 08:13:19;;;;;;;;;;;;;;;3.81;100.00;102607.22;5040082;28;20301;-66
2023/03/03 08:15:49;;;;;;;;;;;;;;;3.82;100.00;102606.28;5023583;28;20173;-70
2023/03/03 08:18:23;;;;;;;;;;;;;;;3.86;100.00;102613.91;5030693;28;19931;-69
2023/03/03 08:20:51;;;;;;;;;;;;;;;3.90;100.00;102619.81;5032356;28;20023;-70
2023/03/03 08:23:18;;;;;;;;;;;;;;;3.93;100.00;102612.75;5020728;28;19921;-67
2023/03/03 08:25:45;;;;;;;;;;;;;;;3.94;100.00;102624.00;5040310;28;19920;-67
2023/03/03 08:28:12;;;;;;;;;;;;;;;3.97;100.00;102623.88;5039944;28;19978;-67
2023/03/03 08:30:39;;;;;;;;;;;;;;;4.04;100.00;102634.88;5045389;28;19963;-70
2023/03/03 08:33:06;;;;;;;;;;;;;;;3.99;100.00;102629.84;5032034;28;19955;-67
2023/03/03 08:35:32;;;;;;;;;;;;;;;4.05;100.00;102626.19;5028855;28;19921;-67
2023/03/03 08:37:59;;;;;;;;;;;;;;;4.09;100.00;102628.59;5034498;28;19932;-67
2023/03/03 08:40:25;;;;;;;;;;;;;;;4.14;100.00;102631.88;5018170;28;19924;-68
2023/03/03 08:42:53;;;;;;;;;;;;;;;4.19;100.00;102638.63;5033253;28;19921;-70
2023/03/03 08:45:19;;;;;;;;;;;;;;;4.21;100.00;102634.22;5013740;28;20017;-68
2023/03/03 08:47:45;;;;;;;;;;;;;;;4.23;100.00;102632.41;5034757;28;19928;-68
2023/03/03 08:50:12;;;;;;;;;;;;;;;4.29;100.00;102634.75;5038159;28;20388;-70
2023/03/03 08:52:39;;;;;;;;;;;;;;;4.35;100.00;102634.50;5038340;28;20405;-71
2023/03/03 08:55:05;;;;;;;;;;;;;;;4.41;100.00;102633.41;5037070;28;19931;-70
2023/03/03 08:57:34;;;;;;;;;;;;;;;4.46;100.00;102634.09;5043212;28;19968;-67
2023/03/03 09:00:00;;;;;;;;;;;;;;;4.46;100.00;102632.31;5033795;28;20490;-68
2023/03/03 09:02:27;;;;;;;;;;;;;;;4.48;100.00;102638.31;5028763;28;20271;-68
2023/03/03 09:04:53;;;;;;;;;;;;;;;4.48;100.00;102642.66;5035982;28;20448;-67
2023/03/03 09:07:19;;;;;;;;;;;;;;;4.55;100.00;102636.31;5039100;28;20387;-67
2023/03/03 09:09:46;;;;;;;;;;;;;;;4.63;100.00;102638.59;5029963;28;19932;-67
2023/03/03 09:12:16;;;;;;;;;;;;;;;4.71;100.00;102644.31;5040465;28;19921;-67
2023/03/03 09:14:43;;;;;;;;;;;;;;;4.70;100.00;102648.66;5019402;28;19935;-67
2023/03/03 09:17:21;;;;;;;;;;;;;;;4.80;100.00;102643.94;5036813;28;19920;-67
2023/03/03 09:19:47;;;;;;;;;;;;;;;4.87;100.00;102647.13;5040681;28;19925;-67
2023/03/03 09:22:16;;;;;;;;;;;;;;;4.91;100.00;102644.31;5032533;28;19984;-67
2023/03/03 09:24:42;;;;;;;;;;;;;;;4.99;100.00;102640.56;5040658;28;19925;-67
2023/03/03 09:27:28;;;;;;;;;;;;;;;5.04;100.00;102636.03;5038285;28;20356;-67
2023/03/03 09:29:56;;;;;;;;;;;;;;;5.10;100.00;102635.75;5034478;28;19925;-67
2023/03/03 09:32:32;;;;;;;;;;;;;;;5.15;100.00;102636.38;5030031;28;19921;-67
2023/03/03 09:34:59;;;;;;;;;;;;;;;5.22;100.00;102634.38;5031480;28;19920;-68
2023/03/03 09:37:34;;;;;;;;;;;;;;;5.29;100.00;102640.97;5023975;28;20637;-68
2023/03/03 09:40:16;;;;;;;;;;;;;;;5.32;100.00;102631.28;5037016;28;20011;-68
2023/03/03 09:43:06;;;;;;;;;;;;;;;5.42;100.00;102638.69;5017927;28;19924;-68
2023/03/03 09:45:40;;;;;;;;;;;;;;;5.48;100.00;102635.81;5021347;28;19960;-67
2023/03/03 09:48:10;;;;;;;;;;;;;;;5.48;100.00;102644.47;5023062;28;19925;-68
2023/03/03 09:50:39;;;;;;;;;;;;;;;5.58;100.00;102646.66;5032354;28;19964;-68
2023/03/03 09:53:09;;;;;;;;;;;;;;;5.61;100.00;102651.75;5030828;28;20377;-68
2023/03/03 09:55:42;;;;;;;;;;;;;;;5.62;100.00;102650.81;5030009;28;19928;-68
2023/03/03 09:58:21;;;;;;;;;;;;;;;5.65;100.00;102648.09;5030406;28;19925;-68
2023/03/03 10:00:56;;;;;;;;;;;;;;;5.69;100.00;102649.63;5030829;28;19921;-69
2023/03/03 10:03:34;;;;;;;;;;;;;;;5.70;100.00;102651.31;5034249;28;19947;-68
2023/03/03 10:06:27;;;;;;;;;;;;;;;5.66;100.00;102655.81;5034323;28;19925;-68
2023/03/03 10:09:03;;;;;;;;;;;;;;;5.74;100.00;102655.44;5031449;28;19944;-67
2023/03/03 10:11:32;;;;;;;;;;;;;;;5.84;100.00;102650.66;5009325;28;19925;-70
2023/03/03 10:14:17;;;;;;;;;;;;;;;5.94;100.00;102654.56;5033734;28;19932;-70
2023/03/03 10:16:48;;;;;;;;;;;;;;;5.92;100.00;102654.63;5034304;28;19921;-69
2023/03/03 10:19:29;;;;;;;;;;;;;;;5.93;100.00;102650.25;5044803;28;19971;-69
2023/03/03 10:22:12;;;;;;;;;;;;;;;5.99;100.00;102651.75;5044624;28;19927;-69
2023/03/03 10:24:46;;;;;;;;;;;;;;;6.16;100.00;102657.03;5030434;28;20377;-68
2023/03/03 10:27:31;;;;;;;;;;;;;;;6.30;100.00;102654.59;5038463;28;19983;-68
2023/03/03 10:30:15;;;;;;;;;;;;;;;6.40;99.23;102655.00;5029806;28;20257;-70
2023/03/03 10:32:56;;;;;;;;;;;;;;;6.73;98.87;102657.72;5034510;28;19925;-70
2023/03/03 10:35:23;;;;;;;;;;;;;;;6.93;97.10;102661.94;5030800;28;19971;-70
2023/03/03 10:38:22;;;;;;;;;;;;;;;7.05;94.21;102663.06;5031553;28;20308;-71
2023/03/03 10:41:07;;;;;;;;;;;;;;;7.13;92.28;102655.72;5011589;28;19925;-70
2023/03/03 10:43:50;;;;;;;;;;;;;;;7.20;93.15;102655.41;5042953;28;19925;-71
2023/03/03 10:46:35;;;;;;;;;;;;;;;7.50;93.50;102661.59;5034085;28;19936;-71
2023/03/03 10:49:04;;;;;;;;;;;;;;;7.57;91.64;102654.31;5034462;28;19996;-71
2023/03/03 10:51:46;;;;;;;;;;;;;;;7.69;89.25;102655.41;5034123;28;19921;-70
2023/03/03 10:54:18;;;;;;;;;;;;;;;7.81;87.47;102654.75;5036337;28;19943;-71
2023/03/03 10:56:53;;;;;;;;;;;;;;;7.93;88.16;102654.06;5040867;28;19925;-71
2023/03/03 10:59:20;;;;;;;;;;;;;;;8.08;86.28;102639.31;5035555;28;20657;-70
2023/03/03 11:02:06;;;;;;;;;;;;;;;8.23;84.19;102645.47;5045279;28;20024;-71
2023/03/03 11:04:39;;;;;;;;;;;;;;;8.29;82.73;102645.13;5032857;28;20007;-71
2023/03/03 11:07:09;;;;;;;;;;;;;;;8.47;82.88;102647.66;5030470;28;20622;-71
2023/03/03 11:09:36;;;;;;;;;;;;;;;8.53;78.90;102644.69;5022520;28;19932;-72
2023/03/03 11:12:05;;;;;;;;;;;;;;;8.71;83.11;102640.97;5047812;28;19921;-72
2023/03/03 11:14:46;;;;;;;;;;;;;;;8.93;81.69;102638.88;5036747;28;19966;-71
2023/03/03 11:17:12;;;;;;;;;;;;;;;9.04;77.56;102637.31;5049948;28;19920;-71
2023/03/03 11:19:46;;;;;;;;;;;;;;;9.08;76.92;102636.19;5028213;28;19987;-72
2023/03/03 11:22:28;;;;;;;;;;;;;;;9.22;76.02;102635.34;5035500;28;19947;-71
2023/03/03 11:25:07;;;;;;;;;;;;;;;9.41;75.45;102639.47;5041598;28;19925;-72
2023/03/03 11:27:52;;;;;;;;;;;;;;;9.57;73.27;102632.34;5038726;28;19928;-71
2023/03/03 11:30:33;;;;;;;;;;;;;;;9.70;71.57;102627.19;5034695;28;19921;-71
2023/03/03 11:33:08;;;;;;;;;;;;;;;9.88;73.95;102635.69;5031023;28;19928;-72
2023/03/03 11:35:39;;;;;;;;;;;;;;;10.02;70.16;102629.56;5025855;28;19924;-71
2023/03/03 11:38:12;;;;;;;;;;;;;;;10.06;69.70;102623.16;5037568;28;19925;-72
2023/03/03 11:40:50;;;;;;;;;;;;;;;10.21;71.59;102622.19;5044245;28;19927;-72
2023/03/03 11:43:33;;;;;;;;;;;;;;;10.56;71.74;102620.81;5010545;28;20355;-72
2023/03/03 11:46:11;;;;;;;;;;;;;;;10.75;65.74;102618.66;5030195;28;20485;-72
2023/03/03 11:48:44;;;;;;;;;;;;;;;10.81;67.87;102620.00;5031646;28;20378;-72
2023/03/03 11:51:10;;;;;;;;;;;;;;;10.97;67.73;102614.56;5028669;28;19925;-72
2023/03/03 11:53:49;;;;;;;;;;;;;;;11.02;65.74;102609.84;5035933;28;19921;-72
2023/03/03 11:56:15;;;;;;;;;;;;;;;11.12;62.82;102602.16;5015111;28;19924;-72
2023/03/03 11:58:52;;;;;;;;;;;;;;;11.13;64.34;102601.22;5034856;28;19929;-72
2023/03/03 12:01:28;;;;;;;;;;;;;;;11.13;63.62;102607.28;5028822;28;19921;-73
2023/03/03 12:04:01;;;;;;;;;;;;;;;11.12;62.69;102602.16;5031397;28;19924;-72
2023/03/03 12:06:39;;;;;;;;;;;;;;;11.27;62.44;102594.06;5025069;28;20623;-72
2023/03/03 12:09:24;;;;;;;;;;;;;;;11.46;63.08;102601.47;5037553;28;19982;-72
2023/03/03 12:11:53;;;;;;;;;;;;;;;11.40;62.17;102595.81;5039838;28;19924;-72
2023/03/03 12:14:29;;;;;;;;;;;;;;;11.51;61.93;102597.69;5040098;28;19979;-72
2023/03/03 12:16:58;;;;;;;;;;;;;;;11.53;61.18;102588.75;5035377;28;19975;-72
2023/03/03 12:19:34;;;;;;;;;;;;;;;11.56;60.64;102587.69;5035471;28;19929;-72
2023/03/03 12:22:12;;;;;;;;;;;;;;;11.78;62.31;102586.97;5030963;28;20003;-72
2023/03/03 12:24:46;;;;;;;;;;;;;;;11.83;61.83;102582.22;5029459;28;19927;-73
2023/03/03 12:27:18;;;;;;;;;;;;;;;11.99;61.42;102574.91;5027671;28;19921;-71
2023/03/03 12:30:17;;;;;;;;;;;;;;;12.09;58.30;102574.25;5014079;28;19931;-73
2023/03/03 12:32:57;;;;;;;;;;;;;;;12.04;61.27;102569.34;4987707;28;19928;-74
2023/03/03 12:35:40;;;;;;;;;;;;;;;11.68;58.18;102571.88;5034998;28;20362;-73
2023/03/03 12:38:14;;;;;;;;;;;;;;;11.76;59.83;102568.69;5027438;28;20382;-73
2023/03/03 12:40:51;;;;;;;;;;;;;;;11.90;58.45;102566.84;5032947;28;19994;-73
2023/03/03 12:43:20;;;;;;;;;;;;;;;12.01;58.71;102570.38;5036220;28;20393;-73
2023/03/03 12:45:55;;;;;;;;;;;;;;;12.07;57.69;102562.06;5044041;28;19931;-72
2023/03/03 12:48:30;;;;;;;;;;;;;;;12.18;58.58;102563.06;5010442;28;19921;-73
2023/03/03 12:51:17;;;;;;;;;;;;;;;12.39;58.72;102564.06;5034513;28;19931;-73
2023/03/03 12:53:44;;;;;;;;;;;;;;;12.38;60.39;102554.47;5026608;28;19921;-70